METAR Gardermoen

ENGM 230550Z 00000KT CAVOK 06/03 Q1019 NOSIG

Webcam Kjeller

Webcam Eggemoen